Time;durP1;ratioP1;P1;durP2;ratioP2;P2;SDS_P1;SDS_P2;PMS_P1;PMS_P2;Temp;Humidity;BMP_temperature;BMP_pressure;BME280_temperature;BME280_humidity;BME280_pressure;Samples;Min_cycle;Max_cycle;Signal;HPM_P1;HPM_P2
2023/09/28 03:01:22;;;;;;;4.97;2.88;;;22.40;51.60;;;;;;5468637;23;45827;-85
2023/09/28 03:03:49;;;;;;;4.10;2.83;;;22.40;51.60;;;;;;4862408;29;45826;-83
2023/09/28 03:06:15;;;;;;;3.00;2.55;;;22.40;51.60;;;;;;4841663;29;45945;-83
2023/09/28 03:08:41;;;;;;;2.88;2.65;;;22.50;51.70;;;;;;4887201;29;45205;-81
2023/09/28 03:11:07;;;;;;;3.17;2.70;;;22.40;51.60;;;;;;4873881;29;45541;-83
2023/09/28 03:13:33;;;;;;;3.30;2.70;;;22.40;51.60;;;;;;4880230;29;45178;-81
2023/09/28 03:16:00;;;;;;;3.00;2.70;;;22.40;51.60;;;;;;4856827;29;45563;-92
2023/09/28 03:18:25;;;;;;;3.33;2.80;;;22.50;51.60;;;;;;4834846;29;45355;-80
2023/09/28 03:20:53;;;;;;;4.00;2.80;;;22.40;51.50;;;;;;4835604;29;45867;-89
2023/09/28 03:23:18;;;;;;;3.15;2.83;;;22.40;51.60;;;;;;4880074;29;46191;-79
2023/09/28 03:25:45;;;;;;;4.40;2.80;;;22.40;51.60;;;;;;4848209;29;45315;-85
2023/09/28 03:28:11;;;;;;;2.93;2.63;;;22.40;51.50;;;;;;4871908;29;45045;-80
2023/09/28 03:30:37;;;;;;;3.05;2.75;;;22.50;51.60;;;;;;4868020;29;45625;-82
2023/09/28 03:33:03;;;;;;;4.22;2.80;;;22.40;51.50;;;;;;4866896;29;47046;-86
2023/09/28 03:35:29;;;;;;;3.73;2.90;;;22.40;51.50;;;;;;4877065;29;45200;-85
2023/09/28 03:37:57;;;;;;;3.53;2.87;;;22.40;51.50;;;;;;4838722;29;45299;-81
2023/09/28 03:40:23;;;;;;;3.23;2.93;;;22.40;51.50;;;;;;4875841;29;45487;-81
2023/09/28 03:42:49;;;;;;;2.92;2.63;;;22.40;51.50;;;;;;4873824;29;46422;-83
2023/09/28 03:45:40;;;;;;;3.30;3.00;;;22.40;51.50;;;;;;4849487;29;45678;-85
2023/09/28 03:48:06;;;;;;;3.25;2.95;;;22.40;51.50;;;;;;4873273;29;45539;-81
2023/09/28 03:50:32;;;;;;;3.30;3.00;;;22.40;51.50;;;;;;4870263;29;45532;-85
2023/09/28 03:52:57;;;;;;;3.25;2.95;;;22.40;52.10;;;;;;4851887;29;45109;-80
2023/09/28 03:55:23;;;;;;;4.07;2.95;;;22.40;51.50;;;;;;4871284;29;44879;-81
2023/09/28 03:57:50;;;;;;;3.45;2.90;;;22.40;51.50;;;;;;4861234;29;45599;-85
2023/09/28 04:00:16;;;;;;;2.85;2.65;;;22.40;51.50;;;;;;4834067;29;45583;-81
2023/09/28 04:03:06;;;;;;;3.15;2.85;;;22.40;51.50;;;;;;4849947;29;46373;-81
2023/09/28 04:05:32;;;;;;;3.22;2.92;;;22.40;51.40;;;;;;4846012;29;45703;-80
2023/09/28 04:07:58;;;;;;;3.45;2.63;;;22.40;51.40;;;;;;4865616;29;44676;-84
2023/09/28 04:10:24;;;;;;;2.92;2.72;;;22.40;51.50;;;;;;4844392;29;45686;-81
2023/09/28 04:12:49;;;;;;;3.23;2.90;;;22.40;51.40;;;;;;4862607;29;47867;-83
2023/09/28 04:15:16;;;;;;;3.10;2.80;;;22.40;51.50;;;;;;4851823;29;45047;-85
2023/09/28 04:17:42;;;;;;;3.28;2.95;;;22.40;51.40;;;;;;4859061;29;45344;-81
2023/09/28 04:20:09;;;;;;;3.80;3.03;;;22.40;51.40;;;;;;4858853;29;45423;-87
2023/09/28 04:22:36;;;;;;;3.33;3.03;;;22.40;51.40;;;;;;4867995;29;45174;-90
2023/09/28 04:25:09;;;;;;;3.20;2.90;;;22.40;51.40;;;;;;4883316;29;44794;-80
2023/09/28 04:27:36;;;;;;;3.17;2.88;;;22.40;51.50;;;;;;4858741;29;44768;-81
2023/09/28 04:30:05;;;;;;;3.67;3.27;;;22.40;51.40;;;;;;4882982;28;44743;-91
2023/09/28 04:32:32;;;;;;;3.30;3.00;;;22.40;51.40;;;;;;4855501;29;45367;-80
2023/09/28 04:34:58;;;;;;;3.10;2.90;;;22.40;51.40;;;;;;4869159;29;45454;-81
2023/09/28 04:37:26;;;;;;;3.85;3.45;;;22.40;51.40;;;;;;4855165;29;44742;-83
2023/09/28 04:39:53;;;;;;;3.30;3.00;;;22.40;51.40;;;;;;4844741;29;46471;-84
2023/09/28 04:42:20;;;;;;;3.47;3.17;;;22.40;51.40;;;;;;4861141;29;46276;-88
2023/09/28 04:44:46;;;;;;;3.47;3.17;;;22.40;51.40;;;;;;4868277;29;45067;-82
2023/09/28 04:47:13;;;;;;;3.45;3.10;;;22.40;51.40;;;;;;4865908;29;45323;-82
2023/09/28 04:49:42;;;;;;;3.38;3.08;;;22.40;51.40;;;;;;4850127;29;44738;-85
2023/09/28 04:52:11;;;;;;;3.70;3.00;;;22.40;51.40;;;;;;4854711;29;46602;-81
2023/09/28 04:54:38;;;;;;;3.33;3.03;;;22.40;51.40;;;;;;4833426;29;45191;-87
2023/09/28 04:57:04;;;;;;;3.15;2.85;;;22.40;51.40;;;;;;4843816;29;45291;-81
2023/09/28 04:59:31;;;;;;;3.57;3.13;;;22.40;51.30;;;;;;4853596;29;45259;-82
2023/09/28 05:01:57;;;;;;;3.20;2.90;;;22.40;51.40;;;;;;4879901;29;46203;-81
2023/09/28 05:04:23;;;;;;;3.50;3.15;;;22.40;51.30;;;;;;4846085;29;45269;-79
2023/09/28 05:06:48;;;;;;;3.53;3.22;;;22.40;51.30;;;;;;4860178;29;44645;-80
2023/09/28 05:09:15;;;;;;;4.30;3.43;;;22.40;51.40;;;;;;4838003;29;45450;-83
2023/09/28 05:11:40;;;;;;;3.40;3.10;;;22.40;51.30;;;;;;4850730;29;45451;-84
2023/09/28 05:14:06;;;;;;;3.47;3.17;;;22.30;51.30;;;;;;4869994;29;45584;-83
2023/09/28 05:16:32;;;;;;;3.70;3.10;;;22.40;51.40;;;;;;4826630;29;45274;-80
2023/09/28 05:18:58;;;;;;;4.30;3.10;;;22.30;51.30;;;;;;4847023;29;45307;-80
2023/09/28 05:21:23;;;;;;;3.63;3.33;;;22.40;51.30;;;;;;4863487;29;45528;-80
2023/09/28 05:23:50;;;;;;;3.43;3.00;;;22.40;51.40;;;;;;4874111;29;45196;-83
2023/09/28 05:26:16;;;;;;;3.80;3.22;;;22.30;51.30;;;;;;4862067;29;45407;-80
2023/09/28 05:28:42;;;;;;;3.50;3.20;;;22.40;51.30;;;;;;4862948;29;45106;-80
2023/09/28 05:31:09;;;;;;;3.70;3.03;;;22.30;51.30;;;;;;4875106;29;45906;-81
2023/09/28 05:33:34;;;;;;;3.50;3.20;;;22.30;51.30;;;;;;4846937;29;44833;-80
2023/09/28 05:36:00;;;;;;;4.33;3.40;;;22.40;51.30;;;;;;4864550;29;45427;-80
2023/09/28 05:38:26;;;;;;;3.72;3.35;;;22.30;51.30;;;;;;4864026;29;46272;-85
2023/09/28 05:40:52;;;;;;;3.50;3.00;;;22.40;51.30;;;;;;4849308;29;47438;-82
2023/09/28 05:43:17;;;;;;;3.50;3.20;;;22.30;51.30;;;;;;4834720;29;45154;-80
2023/09/28 05:45:43;;;;;;;4.10;3.42;;;22.30;51.20;;;;;;4851319;29;45328;-80
2023/09/28 05:48:08;;;;;;;3.83;3.47;;;22.30;51.20;;;;;;4845388;29;45186;-81
2023/09/28 05:50:37;;;;;;;3.65;3.35;;;22.30;51.20;;;;;;4838990;29;46434;-84
2023/09/28 05:53:03;;;;;;;3.97;3.58;;;22.30;51.20;;;;;;4815268;29;45180;-81
2023/09/28 05:55:33;;;;;;;3.45;3.15;;;22.30;51.20;;;;;;4854364;29;45083;-81
2023/09/28 05:57:58;;;;;;;3.65;3.22;;;22.30;51.20;;;;;;4877478;29;44729;-80
2023/09/28 06:00:24;;;;;;;4.70;3.17;;;22.30;51.20;;;;;;4848333;29;46417;-81
2023/09/28 06:02:49;;;;;;;3.73;3.27;;;22.30;51.20;;;;;;4885384;29;45367;-81
2023/09/28 06:05:15;;;;;;;5.30;3.47;;;22.30;51.20;;;;;;4841969;29;44620;-84
2023/09/28 06:07:41;;;;;;;5.37;3.50;;;22.30;51.20;;;;;;4857689;29;45278;-83
2023/09/28 06:10:09;;;;;;;3.60;3.30;;;22.30;51.20;;;;;;4861606;29;45497;-84
2023/09/28 06:12:35;;;;;;;4.13;3.25;;;22.30;51.20;;;;;;4881588;29;44886;-82
2023/09/28 06:15:05;;;;;;;3.47;3.17;;;22.30;51.20;;;;;;4877589;29;44784;-82
2023/09/28 06:17:31;;;;;;;4.53;3.33;;;22.30;51.20;;;;;;4832987;29;46392;-79
2023/09/28 06:19:56;;;;;;;3.40;3.10;;;22.30;51.20;;;;;;4861735;29;46150;-82
2023/09/28 06:22:22;;;;;;;3.90;3.20;;;22.30;51.20;;;;;;4839271;29;45424;-80
2023/09/28 06:24:48;;;;;;;4.65;3.30;;;22.30;51.20;;;;;;4883012;29;45308;-81
2023/09/28 06:27:14;;;;;;;3.63;3.20;;;22.30;51.20;;;;;;4861427;29;44859;-81
2023/09/28 06:29:40;;;;;;;3.60;3.30;;;22.30;51.30;;;;;;4861394;29;46004;-80
2023/09/28 06:32:06;;;;;;;3.28;2.95;;;22.30;51.20;;;;;;4873023;29;45607;-84
2023/09/28 06:34:31;;;;;;;4.27;3.20;;;22.30;51.20;;;;;;4850953;29;45537;-81
2023/09/28 06:36:57;;;;;;;4.17;3.10;;;22.30;51.20;;;;;;4875444;29;45507;-79
2023/09/28 06:39:23;;;;;;;3.42;3.13;;;22.30;51.20;;;;;;4863228;29;46374;-80
2023/09/28 06:41:49;;;;;;;3.55;3.25;;;22.30;51.30;;;;;;4854632;29;45130;-80
2023/09/28 06:44:15;;;;;;;3.55;3.25;;;22.30;51.20;;;;;;4854538;29;44950;-83
2023/09/28 06:46:43;;;;;;;3.75;3.45;;;22.30;51.20;;;;;;4870635;29;45175;-84
2023/09/28 06:49:11;;;;;;;3.83;3.20;;;22.30;51.20;;;;;;4868531;29;46023;-82
2023/09/28 06:51:37;;;;;;;3.47;3.17;;;22.30;51.20;;;;;;4869549;29;46013;-81
2023/09/28 06:54:03;;;;;;;3.42;3.10;;;22.30;51.20;;;;;;4853339;29;45332;-80
2023/09/28 06:56:30;;;;;;;3.95;3.55;;;22.30;51.20;;;;;;4880527;29;45611;-81
2023/09/28 06:58:57;;;;;;;3.60;3.30;;;22.30;51.20;;;;;;4862446;29;45540;-81
2023/09/28 07:01:22;;;;;;;3.90;3.50;;;22.30;51.30;;;;;;4808526;29;45364;-81
2023/09/28 07:03:52;;;;;;;3.70;3.40;;;22.30;51.30;;;;;;4875357;29;45466;-83
2023/09/28 07:06:21;;;;;;;4.30;3.40;;;22.30;51.30;;;;;;4876030;29;45246;-86
2023/09/28 07:08:47;;;;;;;4.80;3.63;;;22.30;51.30;;;;;;4849611;29;45493;-83
2023/09/28 07:11:13;;;;;;;3.58;3.13;;;22.30;51.30;;;;;;4851778;29;45011;-81
2023/09/28 07:13:39;;;;;;;3.92;3.53;;;22.30;51.30;;;;;;4880998;29;45120;-80
2023/09/28 07:16:07;;;;;;;3.87;3.57;;;22.30;51.20;;;;;;4846484;29;45381;-80
2023/09/28 07:18:33;;;;;;;4.20;3.30;;;22.30;51.30;;;;;;4864745;29;45161;-80
2023/09/28 07:20:59;;;;;;;3.43;3.13;;;22.30;51.30;;;;;;4860221;29;46029;-81
2023/09/28 07:23:25;;;;;;;4.37;3.50;;;22.30;51.30;;;;;;4841871;29;44667;-85
2023/09/28 07:25:52;;;;;;;4.15;3.50;;;22.30;51.30;;;;;;4879472;29;45802;-80
2023/09/28 07:28:17;;;;;;;4.57;3.78;;;22.30;51.30;;;;;;4862363;29;45350;-92
2023/09/28 07:30:43;;;;;;;4.40;3.40;;;22.30;51.30;;;;;;4840405;29;45394;-82
2023/09/28 07:33:13;;;;;;;3.93;3.53;;;22.30;51.30;;;;;;4855041;29;45626;-83
2023/09/28 07:35:39;;;;;;;3.95;3.55;;;22.30;51.30;;;;;;4869857;29;45317;-81
2023/09/28 07:38:05;;;;;;;3.88;3.47;;;22.30;51.30;;;;;;4879847;29;45648;-83
2023/09/28 07:40:31;;;;;;;4.13;3.70;;;22.30;51.30;;;;;;4842259;29;45417;-83
2023/09/28 07:42:59;;;;;;;3.83;3.53;;;22.30;51.30;;;;;;4845826;29;45321;-80
2023/09/28 07:45:25;;;;;;;3.70;3.40;;;22.30;51.30;;;;;;4864934;29;45395;-83
2023/09/28 07:47:51;;;;;;;3.67;3.38;;;22.30;51.30;;;;;;4865863;29;45353;-80
2023/09/28 07:50:17;;;;;;;3.80;3.50;;;22.30;51.30;;;;;;4847682;29;45108;-81
2023/09/28 07:52:43;;;;;;;4.22;3.58;;;22.30;51.30;;;;;;4834510;29;45498;-80
2023/09/28 07:55:14;;;;;;;4.05;3.50;;;22.30;51.30;;;;;;4882689;29;45327;-88
2023/09/28 07:57:41;;;;;;;4.15;3.50;;;22.30;51.30;;;;;;4878112;29;45385;-79
2023/09/28 08:00:32;;;;;;;4.68;3.30;;;22.30;51.30;;;;;;4876341;28;45360;-88
2023/09/28 08:02:58;;;;;;;4.10;3.50;;;22.30;51.30;;;;;;4854452;29;45288;-80
2023/09/28 08:05:24;;;;;;;3.70;3.40;;;22.30;51.30;;;;;;4855783;29;45125;-80
2023/09/28 08:07:50;;;;;;;4.15;2.92;;;22.30;51.30;;;;;;4883627;29;46301;-80
2023/09/28 08:10:16;;;;;;;4.65;3.60;;;22.30;51.30;;;;;;4882111;29;45155;-80
2023/09/28 08:12:44;;;;;;;4.05;3.30;;;22.30;51.30;;;;;;4854073;29;45081;-80
2023/09/28 08:15:09;;;;;;;4.00;3.58;;;22.30;51.30;;;;;;4854816;29;45275;-88
2023/09/28 08:17:41;;;;;;;3.97;3.47;;;22.30;51.30;;;;;;4863083;29;45649;-86
2023/09/28 08:20:09;;;;;;;4.13;3.50;;;22.20;51.30;;;;;;4860920;29;45246;-89
2023/09/28 08:22:35;;;;;;;4.00;3.60;;;22.30;51.30;;;;;;4849967;29;45155;-82
2023/09/28 08:25:08;;;;;;;3.43;3.13;;;22.30;51.30;;;;;;4876674;29;44782;-80
2023/09/28 08:27:37;;;;;;;4.03;3.22;;;22.30;51.30;;;;;;4852892;29;46043;-80
2023/09/28 08:30:11;;;;;;;3.90;3.43;;;22.30;51.30;;;;;;4874544;29;45387;-87
2023/09/28 08:32:37;;;;;;;3.72;3.35;;;22.30;51.30;;;;;;4864076;29;45230;-80
2023/09/28 08:35:26;;;;;;;3.67;3.30;;;22.30;51.30;;;;;;4887010;29;45310;-86
2023/09/28 08:37:55;;;;;;;4.28;3.83;;;22.30;51.30;;;;;;4856000;29;46975;-81
2023/09/28 08:40:21;;;;;;;3.70;3.40;;;22.30;51.30;;;;;;4863030;29;45267;-81
2023/09/28 08:42:46;;;;;;;3.77;3.47;;;22.30;51.30;;;;;;4867838;29;45546;-90
2023/09/28 08:45:16;;;;;;;3.53;3.23;;;22.30;51.30;;;;;;4863111;29;44791;-91
2023/09/28 08:47:48;;;;;;;4.03;3.58;;;22.30;51.30;;;;;;4882519;29;46605;-80
2023/09/28 08:50:17;;;;;;;3.70;3.40;;;22.30;51.30;;;;;;4877093;28;45394;-82
2023/09/28 08:52:44;;;;;;;4.00;3.50;;;22.30;51.30;;;;;;4876231;29;45393;-80
2023/09/28 08:55:10;;;;;;;4.53;3.40;;;22.30;51.30;;;;;;4884323;28;45163;-90
2023/09/28 08:57:36;;;;;;;3.80;3.50;;;22.30;51.30;;;;;;4888249;29;46709;-88
2023/09/28 09:00:02;;;;;;;3.50;3.20;;;22.30;51.30;;;;;;4848088;29;44973;-80
2023/09/28 09:02:34;;;;;;;4.40;3.60;;;22.30;51.30;;;;;;4851967;28;45805;-80
2023/09/28 09:04:59;;;;;;;3.90;3.47;;;22.30;51.40;;;;;;4888123;28;45373;-80
2023/09/28 09:07:25;;;;;;;3.72;3.20;;;22.30;51.30;;;;;;4882396;28;46293;-83
2023/09/28 09:09:53;;;;;;;3.97;3.57;;;22.30;51.30;;;;;;4900889;28;44658;-81
2023/09/28 09:12:19;;;;;;;3.95;3.58;;;22.30;51.30;;;;;;4899419;28;45153;-80
2023/09/28 09:14:44;;;;;;;4.63;3.40;;;22.30;51.40;;;;;;4870375;28;46037;-80
2023/09/28 09:17:13;;;;;;;3.92;3.10;;;22.30;51.30;;;;;;4880433;28;46486;-80
2023/09/28 09:19:40;;;;;;;4.10;3.70;;;22.30;51.30;;;;;;4871038;28;45204;-81
2023/09/28 09:22:08;;;;;;;3.92;3.38;;;22.30;51.30;;;;;;4913344;28;45107;-80
2023/09/28 09:24:33;;;;;;;4.20;3.75;;;22.30;51.30;;;;;;4894476;28;44906;-81
2023/09/28 09:26:59;;;;;;;3.88;3.38;;;22.30;51.30;;;;;;4856435;28;45262;-80
2023/09/28 09:29:25;;;;;;;4.10;3.70;;;22.30;51.40;;;;;;4871192;28;45186;-84
2023/09/28 09:31:51;;;;;;;4.53;3.43;;;22.30;51.40;;;;;;4879557;28;45068;-80
2023/09/28 09:34:20;;;;;;;4.03;3.45;;;22.30;51.30;;;;;;4889934;28;44698;-80
2023/09/28 09:36:51;;;;;;;4.25;3.53;;;22.30;51.40;;;;;;4881705;28;46152;-82
2023/09/28 09:39:29;;;;;;;3.70;3.22;;;22.30;51.40;;;;;;4886941;29;45255;-82
2023/09/28 09:41:55;;;;;;;3.33;3.03;;;22.30;51.40;;;;;;4881903;28;45093;-84
2023/09/28 09:44:21;;;;;;;4.00;3.60;;;22.30;51.40;;;;;;4874464;28;45247;-82
2023/09/28 09:46:50;;;;;;;3.20;2.90;;;22.40;51.40;;;;;;4874594;28;47285;-85
2023/09/28 09:49:19;;;;;;;3.80;3.50;;;22.30;51.40;;;;;;4902681;28;45108;-80
2023/09/28 09:51:45;;;;;;;3.53;3.22;;;22.30;51.40;;;;;;4896688;28;45235;-80
2023/09/28 09:54:13;;;;;;;3.60;3.05;;;22.40;51.40;;;;;;4884018;28;45468;-81
2023/09/28 09:56:44;;;;;;;4.10;3.30;;;22.40;51.40;;;;;;4880868;28;46532;-83
2023/09/28 09:59:13;;;;;;;3.63;3.33;;;22.30;51.40;;;;;;4906453;28;45229;-83
2023/09/28 10:01:40;;;;;;;3.80;3.40;;;22.40;51.40;;;;;;4888919;28;45276;-84
2023/09/28 10:04:12;;;;;;;3.78;3.38;;;22.30;51.40;;;;;;4868635;29;45615;-82
2023/09/28 10:06:42;;;;;;;3.42;2.90;;;22.40;51.50;;;;;;4874582;29;45938;-80
2023/09/28 10:09:10;;;;;;;3.63;3.08;;;22.40;51.40;;;;;;4866931;29;44812;-79
2023/09/28 10:11:38;;;;;;;3.20;2.90;;;22.40;51.40;;;;;;4858669;29;45044;-83
2023/09/28 10:14:04;;;;;;;4.50;3.17;;;22.40;51.40;;;;;;4864990;29;44797;-89
2023/09/28 10:16:30;;;;;;;3.47;3.17;;;22.40;51.40;;;;;;4854949;29;45932;-84
2023/09/28 10:18:57;;;;;;;3.33;3.03;;;22.30;51.40;;;;;;4857658;29;45695;-81
2023/09/28 10:21:25;;;;;;;3.72;3.08;;;22.40;51.50;;;;;;4859622;29;45218;-80
2023/09/28 10:23:55;;;;;;;3.20;2.90;;;22.40;51.50;;;;;;4879877;29;45585;-80
2023/09/28 10:26:22;;;;;;;4.17;3.20;;;22.40;51.50;;;;;;4858902;29;46934;-80
2023/09/28 10:29:03;;;;;;;2.95;2.75;;;22.40;51.50;;;;;;4862151;29;44904;-82
2023/09/28 10:31:34;;;;;;;3.27;2.97;;;22.40;51.50;;;;;;4875541;28;45145;-81
2023/09/28 10:34:04;;;;;;;3.38;3.08;;;22.40;51.50;;;;;;4878467;29;45404;-79
2023/09/28 10:36:34;;;;;;;3.65;3.10;;;22.40;51.50;;;;;;4860150;29;46416;-80
2023/09/28 10:39:09;;;;;;;3.90;3.10;;;22.40;51.50;;;;;;4849776;29;45278;-84
2023/09/28 10:41:38;;;;;;;3.13;2.78;;;22.40;51.60;;;;;;4874984;29;45122;-87
2023/09/28 10:44:17;;;;;;;3.40;3.10;;;22.40;51.50;;;;;;4853842;29;45236;-79
2023/09/28 10:46:47;;;;;;;3.42;3.08;;;22.40;51.60;;;;;;4866187;29;45177;-81
2023/09/28 10:49:28;;;;;;;3.43;3.13;;;22.40;51.60;;;;;;4859103;29;46479;-79
2023/09/28 10:51:57;;;;;;;2.78;2.58;;;22.40;51.60;;;;;;4852267;29;46219;-80
2023/09/28 10:54:24;;;;;;;3.00;2.78;;;22.50;51.70;;;;;;4834472;29;45547;-87
2023/09/28 10:56:50;;;;;;;2.83;2.55;;;22.40;51.60;;;;;;4838349;29;46120;-79
2023/09/28 10:59:21;;;;;;;3.20;2.80;;;22.50;51.70;;;;;;4860889;29;45333;-83
2023/09/28 11:01:47;;;;;;;3.50;3.20;;;22.40;51.60;;;;;;4857905;29;44726;-80
2023/09/28 11:04:13;;;;;;;3.33;2.80;;;22.50;51.70;;;;;;4863927;29;45225;-79
2023/09/28 11:06:41;;;;;;;3.17;2.88;;;22.40;51.60;;;;;;4845225;29;45939;-82
2023/09/28 11:09:09;;;;;;;3.25;2.95;;;22.50;51.70;;;;;;4849364;29;45171;-80
2023/09/28 11:11:37;;;;;;;3.55;2.85;;;22.50;51.70;;;;;;4877520;29;45154;-81
2023/09/28 11:14:05;;;;;;;2.63;2.42;;;22.50;51.70;;;;;;4851840;29;45915;-80
2023/09/28 11:16:33;;;;;;;3.00;2.70;;;22.50;51.70;;;;;;4853066;29;46236;-81
2023/09/28 11:18:59;;;;;;;3.40;2.78;;;22.50;51.70;;;;;;4866067;29;45332;-82
2023/09/28 11:21:31;;;;;;;3.00;2.70;;;22.50;51.80;;;;;;4854840;29;45602;-87
2023/09/28 11:23:57;;;;;;;3.28;2.90;;;22.50;51.80;;;;;;4868349;29;45197;-81
2023/09/28 11:26:23;;;;;;;3.10;2.70;;;22.50;51.80;;;;;;4850886;29;46474;-80
2023/09/28 11:28:49;;;;;;;3.20;2.67;;;22.50;51.80;;;;;;4833494;29;45242;-83
2023/09/28 11:31:14;;;;;;;3.07;2.80;;;22.40;51.70;;;;;;4847045;29;44748;-83
2023/09/28 11:33:44;;;;;;;2.92;2.63;;;22.50;51.80;;;;;;4863648;29;45613;-81
2023/09/28 11:36:16;;;;;;;2.90;2.60;;;22.50;51.80;;;;;;4843162;29;47017;-80
2023/09/28 11:38:43;;;;;;;3.53;3.00;;;22.50;51.80;;;;;;4867399;29;45275;-79
2023/09/28 11:41:09;;;;;;;2.95;2.65;;;22.50;51.80;;;;;;4858120;29;45071;-82
2023/09/28 11:43:49;;;;;;;3.15;2.83;;;22.50;51.80;;;;;;4874723;29;45640;-83
2023/09/28 11:46:22;;;;;;;2.70;2.50;;;22.50;51.80;;;;;;4839830;29;46987;-80
2023/09/28 11:49:09;;;;;;;2.80;2.60;;;22.50;51.80;;;;;;4866026;29;45047;-81
2023/09/28 11:51:35;;;;;;;2.80;2.50;;;22.50;51.90;;;;;;4861934;29;45639;-80
2023/09/28 11:54:12;;;;;;;2.80;2.50;;;22.50;51.80;;;;;;4848203;29;45747;-79
2023/09/28 11:56:39;;;;;;;2.70;2.40;;;22.50;51.80;;;;;;4832716;29;46482;-82
2023/09/28 11:59:06;;;;;;;3.00;2.60;;;22.50;51.90;;;;;;4865889;29;45014;-79
2023/09/28 12:01:34;;;;;;;2.70;2.50;;;22.50;51.90;;;;;;4871550;28;45650;-82
2023/09/28 12:03:59;;;;;;;3.10;2.80;;;22.50;51.90;;;;;;4878342;29;44703;-79
2023/09/28 12:06:26;;;;;;;3.13;2.83;;;22.50;51.90;;;;;;4845162;29;45515;-83
2023/09/28 12:08:53;;;;;;;2.65;2.40;;;22.60;51.90;;;;;;4873833;29;45335;-84
2023/09/28 12:11:19;;;;;;;3.80;2.90;;;22.50;51.90;;;;;;4850934;29;45126;-80
2023/09/28 12:13:46;;;;;;;3.63;2.60;;;22.50;51.90;;;;;;4865902;29;45195;-80
2023/09/28 12:16:12;;;;;;;3.15;2.40;;;22.50;51.90;;;;;;4853906;29;45859;-81
2023/09/28 12:18:38;;;;;;;2.90;2.60;;;22.50;51.90;;;;;;4868184;29;45329;-81
2023/09/28 12:21:05;;;;;;;2.70;2.50;;;22.50;51.90;;;;;;4862337;29;44664;-81
2023/09/28 12:23:31;;;;;;;2.90;2.40;;;22.60;52.00;;;;;;4885440;29;44943;-80
2023/09/28 12:25:57;;;;;;;2.60;2.40;;;22.50;51.90;;;;;;4843437;29;46163;-84
2023/09/28 12:28:23;;;;;;;3.67;2.63;;;22.50;51.90;;;;;;4867856;29;45324;-79
2023/09/28 12:30:48;;;;;;;2.80;2.40;;;22.50;52.00;;;;;;4846533;29;44829;-81
2023/09/28 12:33:15;;;;;;;2.57;2.37;;;22.50;52.00;;;;;;4871362;29;45449;-81
2023/09/28 12:35:40;;;;;;;2.97;2.67;;;22.50;51.90;;;;;;4863743;29;47015;-79
2023/09/28 12:38:07;;;;;;;2.83;2.40;;;22.50;52.00;;;;;;4880718;29;45527;-80
2023/09/28 12:40:33;;;;;;;2.55;2.35;;;22.60;52.00;;;;;;4840621;29;44735;-82
2023/09/28 12:43:01;;;;;;;2.60;2.40;;;22.50;52.60;;;;;;4854497;29;45522;-80
2023/09/28 12:45:27;;;;;;;2.40;2.20;;;22.60;52.00;;;;;;4877200;29;45121;-83
2023/09/28 12:47:53;;;;;;;2.78;2.50;;;22.50;52.00;;;;;;4845940;29;46578;-81
2023/09/28 12:50:19;;;;;;;2.53;2.33;;;22.50;52.00;;;;;;4840717;29;45146;-81
2023/09/28 12:52:45;;;;;;;2.87;2.60;;;22.50;52.00;;;;;;4858210;29;45218;-81
2023/09/28 12:55:14;;;;;;;3.08;2.58;;;22.50;52.00;;;;;;4850955;29;48045;-83
2023/09/28 12:57:40;;;;;;;2.33;2.10;;;22.50;52.00;;;;;;4852471;29;45104;-80
2023/09/28 13:00:14;;;;;;;2.47;2.27;;;22.50;52.00;;;;;;4877640;29;45294;-86
2023/09/28 13:02:42;;;;;;;2.58;2.38;;;22.50;52.00;;;;;;4856525;29;45330;-84
2023/09/28 13:05:08;;;;;;;2.47;2.28;;;22.50;52.00;;;;;;4874007;29;45575;-83
2023/09/28 13:07:34;;;;;;;2.30;2.10;;;22.50;52.10;;;;;;4837776;29;45099;-83
2023/09/28 13:10:03;;;;;;;2.75;2.47;;;22.50;52.10;;;;;;4863562;29;45249;-79
2023/09/28 13:12:33;;;;;;;2.53;2.30;;;22.50;52.00;;;;;;4866507;29;45244;-81
2023/09/28 13:14:59;;;;;;;2.33;2.10;;;22.50;52.10;;;;;;4878276;29;45396;-80
2023/09/28 13:17:30;;;;;;;2.67;2.23;;;22.50;52.10;;;;;;4859133;29;45388;-84
2023/09/28 13:19:56;;;;;;;2.70;2.45;;;22.50;52.00;;;;;;4865253;29;45634;-80
2023/09/28 13:22:23;;;;;;;2.53;2.33;;;22.50;52.10;;;;;;4872096;29;45435;-80
2023/09/28 13:24:49;;;;;;;2.35;2.15;;;22.50;52.10;;;;;;4877101;29;45395;-80
2023/09/28 13:27:17;;;;;;;2.30;2.10;;;22.50;52.10;;;;;;4845752;29;45441;-83
2023/09/28 13:29:43;;;;;;;2.92;2.20;;;22.60;52.10;;;;;;4858123;29;45363;-82
2023/09/28 13:32:12;;;;;;;2.50;2.30;;;22.60;52.10;;;;;;4822242;29;45387;-80
2023/09/28 13:34:38;;;;;;;2.63;2.40;;;22.50;52.10;;;;;;4856061;29;46792;-83
2023/09/28 13:37:05;;;;;;;3.22;2.30;;;22.50;52.10;;;;;;4858657;29;45242;-81
2023/09/28 13:39:33;;;;;;;2.40;2.10;;;22.60;52.20;;;;;;4869756;29;45345;-82
2023/09/28 13:42:03;;;;;;;2.22;2.03;;;22.50;52.10;;;;;;4859678;29;45507;-87
2023/09/28 13:44:30;;;;;;;2.30;2.10;;;22.60;52.10;;;;;;4848218;29;46654;-82
2023/09/28 13:46:56;;;;;;;2.28;2.08;;;22.50;52.10;;;;;;4865031;29;45460;-80
2023/09/28 13:49:25;;;;;;;2.72;2.10;;;22.50;52.10;;;;;;4842450;29;46057;-81
2023/09/28 13:51:57;;;;;;;2.17;1.90;;;22.60;52.20;;;;;;4863471;29;45030;-80
2023/09/28 13:54:26;;;;;;;2.40;2.20;;;22.60;52.20;;;;;;4860765;29;45213;-79
2023/09/28 13:56:57;;;;;;;2.38;2.17;;;22.60;52.20;;;;;;4855711;29;45503;-81
2023/09/28 13:59:24;;;;;;;2.33;2.03;;;22.60;52.20;;;;;;4867929;29;45615;-82
2023/09/28 14:01:51;;;;;;;2.60;2.00;;;22.60;52.20;;;;;;4839541;29;45250;-80
2023/09/28 14:04:20;;;;;;;2.60;2.00;;;22.50;52.20;;;;;;4861174;29;45256;-83
2023/09/28 14:06:46;;;;;;;2.50;2.20;;;22.60;52.20;;;;;;4856787;29;45068;-83
2023/09/28 14:09:14;;;;;;;2.60;1.95;;;22.60;52.20;;;;;;4853793;29;45312;-80
2023/09/28 14:11:43;;;;;;;2.53;2.20;;;22.60;52.20;;;;;;4848944;29;44771;-79
2023/09/28 14:14:09;;;;;;;2.20;2.00;;;22.50;52.20;;;;;;4851187;29;45279;-80
2023/09/28 14:16:39;;;;;;;2.15;1.92;;;22.60;52.30;;;;;;4850228;29;45171;-84
2023/09/28 14:19:06;;;;;;;2.30;2.10;;;22.60;52.30;;;;;;4874065;29;45575;-87
2023/09/28 14:21:32;;;;;;;2.40;1.83;;;22.60;52.30;;;;;;4842195;29;45440;-80
2023/09/28 14:23:59;;;;;;;2.13;1.93;;;22.60;52.30;;;;;;4860949;29;46210;-79
2023/09/28 14:26:26;;;;;;;2.23;2.03;;;22.60;52.30;;;;;;4873391;29;45282;-85
2023/09/28 14:28:51;;;;;;;2.20;2.00;;;22.60;52.30;;;;;;4882600;29;44703;-81
2023/09/28 14:31:18;;;;;;;2.10;1.73;;;22.60;52.90;;;;;;4844079;29;45150;-83
2023/09/28 14:33:44;;;;;;;2.15;1.83;;;22.60;52.30;;;;;;4840140;29;46521;-80
2023/09/28 14:36:12;;;;;;;2.37;2.17;;;22.60;52.30;;;;;;4864298;29;44974;-85
2023/09/28 14:38:38;;;;;;;2.17;1.97;;;22.60;52.30;;;;;;4878187;29;45592;-82
2023/09/28 14:41:03;;;;;;;1.85;1.70;;;22.60;52.40;;;;;;4844333;29;45567;-83
2023/09/28 14:43:29;;;;;;;2.07;1.87;;;22.60;52.30;;;;;;4846849;29;45879;-79
2023/09/28 14:45:56;;;;;;;2.10;1.90;;;22.60;52.40;;;;;;4854721;29;45354;-87
2023/09/28 14:48:22;;;;;;;2.20;2.00;;;22.60;52.40;;;;;;4857627;29;44680;-80
2023/09/28 14:50:47;;;;;;;2.80;2.23;;;22.60;52.40;;;;;;4845205;29;45472;-86
2023/09/28 14:53:15;;;;;;;2.43;2.00;;;22.60;52.40;;;;;;4847048;29;45552;-81
2023/09/28 14:55:44;;;;;;;2.10;1.90;;;22.60;52.40;;;;;;4874622;29;45542;-80
2023/09/28 14:58:10;;;;;;;2.03;1.83;;;22.60;52.40;;;;;;4860128;29;44967;-83
2023/09/28 15:00:37;;;;;;;1.95;1.85;;;22.60;52.40;;;;;;4855458;28;45071;-81
2023/09/28 15:03:04;;;;;;;2.20;1.75;;;22.60;52.40;;;;;;4863595;29;45417;-80
2023/09/28 15:05:30;;;;;;;2.20;2.00;;;22.60;52.40;;;;;;4856458;29;45303;-80
2023/09/28 15:07:56;;;;;;;2.28;1.80;;;22.60;52.40;;;;;;4873739;29;45294;-80
2023/09/28 15:10:22;;;;;;;2.45;2.10;;;22.60;52.40;;;;;;4859536;29;45167;-82
2023/09/28 15:12:47;;;;;;;2.63;1.95;;;22.60;52.50;;;;;;4859524;29;46002;-81
2023/09/28 15:15:17;;;;;;;3.17;2.00;;;22.60;52.50;;;;;;4824177;29;45638;-87
2023/09/28 15:17:42;;;;;;;2.20;2.00;;;22.60;52.50;;;;;;4847544;29;45254;-80
2023/09/28 15:20:09;;;;;;;1.90;1.80;;;22.60;52.50;;;;;;4832130;29;44902;-83
2023/09/28 15:22:35;;;;;;;2.00;1.80;;;22.60;52.50;;;;;;4847327;29;47053;-81
2023/09/28 15:25:01;;;;;;;2.23;2.03;;;22.60;52.50;;;;;;4834300;29;45906;-87
2023/09/28 15:27:27;;;;;;;2.67;1.80;;;22.60;52.50;;;;;;4873181;29;45867;-80
2023/09/28 15:29:52;;;;;;;2.10;1.90;;;22.60;52.50;;;;;;4825378;29;44845;-83
2023/09/28 15:32:19;;;;;;;2.00;1.80;;;22.60;52.50;;;;;;4836395;29;46149;-81
2023/09/28 15:34:45;;;;;;;1.75;1.65;;;22.60;52.50;;;;;;4846615;29;45356;-81
2023/09/28 15:37:15;;;;;;;2.73;2.10;;;22.60;52.50;;;;;;4858061;29;45452;-79
2023/09/28 15:39:41;;;;;;;2.05;1.85;;;22.60;52.60;;;;;;4843701;29;46138;-80
2023/09/28 15:42:08;;;;;;;2.40;1.70;;;22.60;52.50;;;;;;4837537;29;47194;-85
2023/09/28 15:44:34;;;;;;;2.28;1.90;;;22.60;52.60;;;;;;4861409;29;45289;-80
2023/09/28 15:47:00;;;;;;;2.58;2.00;;;22.60;52.50;;;;;;4854099;29;45335;-81
2023/09/28 15:49:26;;;;;;;2.20;2.00;;;22.60;52.60;;;;;;4834629;29;44923;-80